Aviation Digital Data Service (ADDS)

Output produced by METARs form (2045 UTC 30 July 2016)
found at http://aviationweather.gov/adds/metars/
 
KAUG 301720Z 3018/3118 36008KT P6SM SCT250 
     FM302300 VRB03KT P6SM BKN200